createdAt,value
2023-02-02T00:01:11.548Z,4.30
2023-02-02T00:03:39.500Z,4.30
2023-02-02T00:06:06.723Z,4.30
2023-02-02T00:08:35.963Z,4.30
2023-02-02T00:11:03.040Z,4.40
2023-02-02T00:13:29.909Z,4.30
2023-02-02T00:15:56.862Z,4.30
2023-02-02T00:18:23.787Z,4.30
2023-02-02T00:20:50.865Z,4.20
2023-02-02T00:23:17.783Z,4.20
2023-02-02T00:25:44.678Z,4.20
2023-02-02T00:28:11.529Z,4.20
2023-02-02T00:30:38.410Z,4.20
2023-02-02T00:33:05.259Z,4.30
2023-02-02T00:35:32.209Z,4.20
2023-02-02T00:37:59.173Z,4.20
2023-02-02T00:40:26.107Z,4.20
2023-02-02T00:42:52.959Z,4.20
2023-02-02T00:45:19.916Z,4.20
2023-02-02T00:47:50.006Z,4.10
2023-02-02T00:50:21.438Z,4.10
2023-02-02T00:52:49.347Z,4.10
2023-02-02T00:55:17.307Z,4.10
2023-02-02T00:57:47.015Z,4.10
2023-02-02T01:00:26.017Z,4.10
2023-02-02T01:02:54.421Z,4.10
2023-02-02T01:05:21.881Z,4.20
2023-02-02T01:07:48.901Z,4.20
2023-02-02T01:10:18.500Z,4.20
2023-02-02T01:12:45.545Z,4.20
2023-02-02T01:15:13.155Z,4.30
2023-02-02T01:17:40.570Z,4.30
2023-02-02T01:20:11.082Z,4.30
2023-02-02T01:22:38.577Z,4.30
2023-02-02T01:25:05.970Z,4.30
2023-02-02T01:27:32.846Z,4.40
2023-02-02T01:29:59.851Z,4.40
2023-02-02T01:32:26.965Z,4.40
2023-02-02T01:34:53.813Z,4.40
2023-02-02T01:37:22.222Z,4.50
2023-02-02T01:39:49.545Z,4.50
2023-02-02T01:42:22.365Z,4.60
2023-02-02T01:45:07.490Z,4.60
2023-02-02T01:47:43.599Z,4.60
2023-02-02T01:50:13.231Z,4.60
2023-02-02T01:52:41.226Z,4.60
2023-02-02T01:55:11.768Z,4.60
2023-02-02T01:57:50.859Z,4.60
2023-02-02T02:00:25.004Z,4.70
2023-02-02T02:03:04.998Z,4.70
2023-02-02T02:05:38.390Z,4.80
2023-02-02T02:08:35.949Z,4.80
2023-02-02T02:11:03.381Z,4.90
2023-02-02T02:13:50.737Z,4.90
2023-02-02T02:16:40.956Z,5.00
2023-02-02T02:20:05.939Z,5.00
2023-02-02T02:23:22.095Z,4.90
2023-02-02T02:26:36.675Z,5.00
2023-02-02T02:29:06.559Z,5.10
2023-02-02T02:31:33.460Z,5.00
2023-02-02T02:34:12.310Z,5.10
2023-02-02T02:36:56.859Z,5.10
2023-02-02T02:39:38.723Z,5.20
2023-02-02T02:42:13.328Z,5.20
2023-02-02T02:44:41.537Z,5.30
2023-02-02T02:47:08.887Z,5.30
2023-02-02T02:49:46.183Z,5.30
2023-02-02T02:52:13.322Z,5.30
2023-02-02T02:54:51.631Z,5.30
2023-02-02T02:57:51.972Z,5.40
2023-02-02T03:00:37.043Z,5.40
2023-02-02T03:03:16.526Z,5.40
2023-02-02T03:06:29.323Z,5.40
2023-02-02T03:09:00.917Z,5.40
2023-02-02T03:11:27.951Z,5.40
2023-02-02T03:13:55.531Z,5.40
2023-02-02T03:16:22.736Z,5.50
2023-02-02T03:18:49.683Z,5.50
2023-02-02T03:21:16.577Z,5.50
2023-02-02T03:23:43.456Z,5.50
2023-02-02T03:26:10.440Z,5.50
2023-02-02T03:28:37.571Z,5.60
2023-02-02T03:31:04.996Z,5.60
2023-02-02T03:33:35.515Z,5.60
2023-02-02T03:36:02.420Z,5.60
2023-02-02T03:38:29.403Z,5.70
2023-02-02T03:40:56.361Z,5.60
2023-02-02T03:43:24.811Z,5.70
2023-02-02T03:46:04.456Z,5.70
2023-02-02T03:48:32.520Z,5.70
2023-02-02T03:51:05.412Z,5.60
2023-02-02T03:53:32.358Z,6.10
2023-02-02T03:56:01.073Z,5.50
2023-02-02T03:58:27.989Z,5.60
2023-02-02T04:00:59.103Z,5.60
2023-02-02T04:03:25.949Z,5.50
2023-02-02T04:05:52.822Z,5.50
2023-02-02T04:08:19.669Z,5.60
2023-02-02T04:10:46.539Z,5.60
2023-02-02T04:13:13.477Z,5.70
2023-02-02T04:15:41.037Z,5.70
2023-02-02T04:18:07.937Z,5.70
2023-02-02T04:20:34.776Z,5.80
2023-02-02T04:23:01.671Z,5.80
2023-02-02T04:25:28.597Z,5.90
2023-02-02T04:27:55.539Z,5.90
2023-02-02T04:30:22.446Z,5.90
2023-02-02T04:32:51.622Z,6.00
2023-02-02T04:35:18.492Z,6.00
2023-02-02T04:37:45.992Z,6.20
2023-02-02T04:40:13.758Z,6.30
2023-02-02T04:42:40.608Z,6.30
2023-02-02T04:45:07.964Z,6.30
2023-02-02T04:47:34.834Z,6.50
2023-02-02T04:50:01.674Z,6.50
2023-02-02T04:52:29.314Z,6.60
2023-02-02T04:54:56.159Z,6.70
2023-02-02T04:57:23.117Z,6.70
2023-02-02T04:59:50.023Z,6.70
2023-02-02T05:02:16.873Z,6.70
2023-02-02T05:04:43.810Z,6.80
2023-02-02T05:07:10.848Z,6.70
2023-02-02T05:09:37.794Z,6.70
2023-02-02T05:12:05.012Z,6.70
2023-02-02T05:14:31.814Z,6.70
2023-02-02T05:16:58.728Z,6.70
2023-02-02T05:19:25.642Z,6.70
2023-02-02T05:21:54.675Z,6.70
2023-02-02T05:24:21.557Z,6.60
2023-02-02T05:26:48.432Z,6.60
2023-02-02T05:29:15.342Z,6.60
2023-02-02T05:31:42.221Z,6.50
2023-02-02T05:34:11.516Z,6.60
2023-02-02T05:36:38.469Z,6.60
2023-02-02T05:39:05.678Z,6.60
2023-02-02T05:41:32.889Z,6.60
2023-02-02T05:44:00.337Z,6.60
2023-02-02T05:46:27.616Z,6.50
2023-02-02T05:48:54.618Z,6.50
2023-02-02T05:51:37.314Z,6.40
2023-02-02T05:54:04.320Z,6.40
2023-02-02T05:56:31.223Z,6.40
2023-02-02T05:58:58.853Z,6.30
2023-02-02T06:01:26.143Z,6.20
2023-02-02T06:03:53.140Z,6.00
2023-02-02T06:06:20.521Z,5.90
2023-02-02T06:08:47.418Z,5.90
2023-02-02T06:11:16.761Z,5.80
2023-02-02T06:13:45.926Z,5.70
2023-02-02T06:16:13.243Z,5.80
2023-02-02T06:18:40.331Z,5.90
2023-02-02T06:21:07.363Z,6.00
2023-02-02T06:23:34.862Z,6.00
2023-02-02T06:26:04.339Z,6.00
2023-02-02T06:28:31.759Z,6.00
2023-02-02T06:31:08.228Z,5.90
2023-02-02T06:33:35.589Z,5.90
2023-02-02T06:36:03.818Z,5.80
2023-02-02T06:38:32.273Z,5.70
2023-02-02T06:41:00.480Z,5.60
2023-02-02T06:43:27.839Z,5.40
2023-02-02T06:45:54.812Z,5.30
2023-02-02T06:48:21.700Z,5.20
2023-02-02T06:50:48.587Z,5.00
2023-02-02T06:53:16.022Z,4.90
2023-02-02T06:55:42.886Z,4.90
2023-02-02T06:58:09.754Z,4.80
2023-02-02T07:00:38.289Z,4.70
2023-02-02T07:03:05.575Z,4.70
2023-02-02T07:05:32.680Z,4.70
2023-02-02T07:07:59.673Z,4.80
2023-02-02T07:11:13.923Z,4.80
2023-02-02T07:13:13.665Z,4.80
2023-02-02T07:15:41.147Z,4.80
2023-02-02T07:18:08.589Z,4.80
2023-02-02T07:20:35.791Z,4.70
2023-02-02T07:23:04.530Z,4.70
2023-02-02T07:25:31.780Z,4.70
2023-02-02T07:27:58.690Z,4.60
2023-02-02T07:30:29.945Z,4.80
2023-02-02T07:32:57.407Z,4.80
2023-02-02T07:35:24.704Z,4.80
2023-02-02T07:37:56.167Z,4.80
2023-02-02T07:40:23.186Z,4.90
2023-02-02T07:42:50.080Z,5.00
2023-02-02T07:45:27.550Z,4.90
2023-02-02T07:47:58.925Z,5.00
2023-02-02T07:50:26.598Z,4.90
2023-02-02T07:52:53.920Z,4.90
2023-02-02T07:55:21.172Z,4.90
2023-02-02T07:57:48.068Z,4.90
2023-02-02T08:00:15.201Z,4.90
2023-02-02T08:02:42.137Z,4.90
2023-02-02T08:05:09.610Z,4.90
2023-02-02T08:07:36.632Z,4.80
2023-02-02T08:10:03.782Z,4.80
2023-02-02T08:12:30.740Z,4.80
2023-02-02T08:14:59.225Z,4.90
2023-02-02T08:17:26.145Z,4.90
2023-02-02T08:19:53.018Z,5.00
2023-02-02T08:22:20.452Z,4.90
2023-02-02T08:24:48.073Z,4.90
2023-02-02T08:27:16.399Z,5.00
2023-02-02T08:29:43.558Z,5.10
2023-02-02T08:32:10.529Z,5.10
2023-02-02T08:34:37.616Z,5.30
2023-02-02T08:37:04.511Z,5.40
2023-02-02T08:39:31.530Z,5.50
2023-02-02T08:41:58.511Z,5.50
2023-02-02T08:44:28.471Z,5.60
2023-02-02T08:47:13.501Z,5.80
2023-02-02T08:49:42.474Z,5.80
2023-02-02T08:52:09.531Z,5.80
2023-02-02T08:54:36.382Z,5.90
2023-02-02T08:57:03.378Z,5.80
2023-02-02T08:59:30.227Z,5.80
2023-02-02T09:01:57.146Z,5.80
2023-02-02T09:04:24.077Z,5.90
2023-02-02T09:06:50.955Z,5.80
2023-02-02T09:09:17.890Z,5.80
2023-02-02T09:11:45.107Z,5.70
2023-02-02T09:14:14.169Z,5.70
2023-02-02T09:16:41.324Z,5.70
2023-02-02T09:19:08.452Z,5.80
2023-02-02T09:21:37.246Z,5.90
2023-02-02T09:24:13.002Z,5.80
2023-02-02T09:26:40.835Z,5.80
2023-02-02T09:29:11.229Z,5.80
2023-02-02T09:31:39.003Z,5.80
2023-02-02T09:34:09.377Z,5.80
2023-02-02T09:36:37.762Z,5.80
2023-02-02T09:39:06.210Z,5.90
2023-02-02T09:41:39.404Z,5.90
2023-02-02T09:44:37.378Z,5.90
2023-02-02T09:47:19.372Z,5.90
2023-02-02T09:50:11.137Z,6.00
2023-02-02T09:53:07.764Z,6.00
2023-02-02T09:55:47.337Z,6.10
2023-02-02T09:58:34.922Z,6.10
2023-02-02T10:01:04.759Z,6.20
2023-02-02T10:03:39.580Z,6.30
2023-02-02T10:06:38.667Z,6.40
2023-02-02T10:09:27.238Z,6.40
2023-02-02T10:12:17.398Z,6.60
2023-02-02T10:15:00.646Z,6.60
2023-02-02T10:18:09.262Z,6.60
2023-02-02T10:20:47.882Z,6.60
2023-02-02T10:23:50.074Z,6.60
2023-02-02T10:26:23.678Z,6.60
2023-02-02T10:28:50.720Z,6.60
2023-02-02T10:31:38.815Z,6.60
2023-02-02T10:34:16.433Z,6.60
2023-02-02T10:36:43.196Z,6.60
2023-02-02T10:39:33.709Z,6.50
2023-02-02T10:42:45.476Z,6.50
2023-02-02T10:45:20.478Z,6.40
2023-02-02T10:47:47.791Z,6.40
2023-02-02T10:50:14.711Z,6.40
2023-02-02T10:52:53.155Z,6.40
2023-02-02T10:55:26.366Z,6.40
2023-02-02T10:58:04.286Z,6.40
2023-02-02T11:00:46.872Z,6.40
2023-02-02T11:03:16.392Z,6.40
2023-02-02T11:06:01.796Z,6.40
2023-02-02T11:08:34.426Z,6.50
2023-02-02T11:11:41.821Z,6.40
2023-02-02T11:14:09.242Z,6.40
2023-02-02T11:16:44.270Z,6.40
2023-02-02T11:19:32.709Z,6.40
2023-02-02T11:22:02.732Z,6.40
2023-02-02T11:24:41.781Z,6.40
2023-02-02T11:27:14.528Z,6.50
2023-02-02T11:29:54.488Z,6.50
2023-02-02T11:32:32.704Z,6.60
2023-02-02T11:35:08.863Z,6.60
2023-02-02T11:37:37.949Z,6.60
2023-02-02T11:40:27.491Z,6.60
2023-02-02T11:43:10.797Z,6.60
2023-02-02T11:45:41.610Z,6.60
2023-02-02T11:48:24.495Z,6.60
2023-02-02T11:50:59.954Z,6.60
2023-02-02T11:53:26.756Z,6.60
2023-02-02T11:55:55.097Z,6.60
2023-02-02T11:58:27.343Z,6.60
2023-02-02T12:01:03.756Z,6.60
2023-02-02T12:03:38.761Z,6.50
2023-02-02T12:06:34.881Z,6.50
2023-02-02T12:09:09.662Z,6.50
2023-02-02T12:11:51.004Z,6.50
2023-02-02T12:14:47.051Z,6.50
2023-02-02T12:17:23.094Z,6.50
2023-02-02T12:20:16.646Z,6.50
2023-02-02T12:23:05.687Z,6.50
2023-02-02T12:26:10.382Z,6.50
2023-02-02T12:29:19.347Z,6.50
2023-02-02T12:32:15.367Z,6.50
2023-02-02T12:34:48.170Z,6.50
2023-02-02T12:37:36.996Z,6.60
2023-02-02T12:40:20.614Z,6.60
2023-02-02T12:43:03.980Z,6.70
2023-02-02T12:45:45.661Z,6.70
2023-02-02T12:48:27.167Z,6.80
2023-02-02T12:51:07.712Z,6.70
2023-02-02T12:53:46.243Z,6.70
2023-02-02T12:56:51.986Z,6.70
2023-02-02T12:59:50.906Z,6.70
2023-02-02T13:02:31.632Z,6.70
2023-02-02T13:05:13.553Z,6.70
2023-02-02T13:07:42.628Z,6.70
2023-02-02T13:10:17.447Z,6.70
2023-02-02T13:12:53.035Z,6.70
2023-02-02T13:15:24.135Z,6.70
2023-02-02T13:17:56.338Z,6.80
2023-02-02T13:20:35.211Z,6.80
2023-02-02T13:23:15.246Z,6.80
2023-02-02T13:26:00.252Z,6.70
2023-02-02T13:29:00.016Z,6.70
2023-02-02T13:31:44.188Z,6.70
2023-02-02T13:34:37.792Z,6.60
2023-02-02T13:37:14.995Z,6.60
2023-02-02T13:40:03.701Z,6.50
2023-02-02T13:42:49.177Z,6.50
2023-02-02T13:45:40.946Z,6.50
2023-02-02T13:48:35.526Z,6.50
2023-02-02T13:51:33.278Z,6.40
2023-02-02T13:54:22.243Z,6.40
2023-02-02T13:57:04.210Z,6.90
2023-02-02T13:59:53.183Z,6.40
2023-02-02T14:02:38.811Z,6.40
2023-02-02T14:05:07.410Z,6.40
2023-02-02T14:07:44.187Z,6.30
2023-02-02T14:10:25.714Z,6.40
2023-02-02T14:12:53.655Z,6.40
2023-02-02T14:15:40.765Z,6.30
2023-02-02T14:18:07.997Z,6.40
2023-02-02T14:20:47.887Z,6.50
2023-02-02T14:23:51.039Z,6.40
2023-02-02T14:26:40.600Z,6.40
2023-02-02T14:29:31.530Z,6.30
2023-02-02T14:32:29.102Z,6.30
2023-02-02T14:34:58.394Z,6.30
2023-02-02T14:37:26.245Z,6.30
2023-02-02T14:40:05.377Z,6.30
2023-02-02T14:43:09.463Z,6.40
2023-02-02T14:45:41.013Z,6.40
2023-02-02T14:48:17.098Z,6.50
2023-02-02T14:51:01.994Z,6.50
2023-02-02T14:53:33.761Z,6.60
2023-02-02T14:56:11.008Z,6.60
2023-02-02T14:58:44.197Z,6.60
2023-02-02T15:01:27.336Z,6.70
2023-02-02T15:04:33.240Z,6.80
2023-02-02T15:07:23.094Z,6.80
2023-02-02T15:09:56.416Z,6.90
2023-02-02T15:12:34.866Z,7.00
2023-02-02T15:15:14.015Z,7.00
2023-02-02T15:17:41.295Z,7.00
2023-02-02T15:20:36.265Z,7.00
2023-02-02T15:23:25.148Z,7.00
2023-02-02T15:26:30.782Z,7.00
2023-02-02T15:29:01.544Z,7.00
2023-02-02T15:31:42.965Z,7.00
2023-02-02T15:34:38.160Z,7.00
2023-02-02T15:37:08.147Z,7.00
2023-02-02T15:39:42.169Z,7.10
2023-02-02T15:42:43.357Z,7.00
2023-02-02T15:45:34.747Z,7.10
2023-02-02T15:48:10.487Z,7.00
2023-02-02T15:50:39.544Z,7.00
2023-02-02T15:53:21.110Z,7.00
2023-02-02T15:55:48.331Z,7.00
2023-02-02T15:58:47.185Z,7.10
2023-02-02T16:01:21.641Z,7.00
2023-02-02T16:04:27.327Z,7.00
2023-02-02T16:06:54.768Z,7.00
2023-02-02T16:09:27.550Z,7.00
2023-02-02T16:11:54.835Z,7.00
2023-02-02T16:14:22.289Z,7.00
2023-02-02T16:16:49.745Z,7.00
2023-02-02T16:19:21.310Z,7.00
2023-02-02T16:22:00.083Z,7.00
2023-02-02T16:24:51.686Z,7.00
2023-02-02T16:27:22.350Z,7.00
2023-02-02T16:29:50.074Z,7.00
2023-02-02T16:32:38.804Z,7.00
2023-02-02T16:35:27.594Z,7.00
2023-02-02T16:38:15.853Z,7.00
2023-02-02T16:40:42.919Z,7.00
2023-02-02T16:43:28.690Z,7.00
2023-02-02T16:46:00.482Z,7.00
2023-02-02T16:48:57.216Z,7.00
2023-02-02T16:51:27.086Z,7.00
2023-02-02T16:54:02.009Z,7.00
2023-02-02T16:56:40.958Z,7.00
2023-02-02T16:59:35.087Z,7.10
2023-02-02T17:02:16.662Z,7.10
2023-02-02T17:04:49.200Z,7.00
2023-02-02T17:07:17.525Z,7.00
2023-02-02T17:09:46.900Z,7.00
2023-02-02T17:12:32.830Z,7.10
2023-02-02T17:15:28.431Z,7.10
2023-02-02T17:17:55.857Z,7.10
2023-02-02T17:20:23.225Z,7.10
2023-02-02T17:23:02.397Z,7.10
2023-02-02T17:25:50.994Z,7.10
2023-02-02T17:28:20.421Z,7.10
2023-02-02T17:31:18.523Z,7.10
2023-02-02T17:33:45.874Z,7.10
2023-02-02T17:36:13.578Z,7.10
2023-02-02T17:38:46.973Z,7.20
2023-02-02T17:41:14.432Z,7.20
2023-02-02T17:43:42.818Z,7.20
2023-02-02T17:46:13.020Z,7.20
2023-02-02T17:48:40.115Z,7.20
2023-02-02T17:51:16.487Z,7.20
2023-02-02T17:53:44.772Z,7.20
2023-02-02T17:56:11.625Z,7.20
2023-02-02T17:58:38.456Z,7.20
2023-02-02T18:01:05.553Z,7.20
2023-02-02T18:03:35.972Z,7.20
2023-02-02T18:06:03.851Z,7.20
2023-02-02T18:08:32.570Z,7.20
2023-02-02T18:10:59.885Z,7.20
2023-02-02T18:13:27.182Z,7.30
2023-02-02T18:15:56.002Z,7.30
2023-02-02T18:18:23.133Z,7.30
2023-02-02T18:20:50.698Z,7.30
2023-02-02T18:23:18.747Z,7.30
2023-02-02T18:25:46.169Z,7.30
2023-02-02T18:28:17.157Z,7.30
2023-02-02T18:30:45.496Z,7.30
2023-02-02T18:33:13.513Z,7.30
2023-02-02T18:35:45.633Z,7.30
2023-02-02T18:38:13.121Z,7.30
2023-02-02T18:40:40.288Z,7.30
2023-02-02T18:43:07.185Z,7.30
2023-02-02T18:45:34.118Z,7.30
2023-02-02T18:48:01.034Z,7.40
2023-02-02T18:50:28.093Z,7.30
2023-02-02T18:52:56.807Z,7.30
2023-02-02T18:55:24.289Z,7.40
2023-02-02T18:57:51.520Z,7.40
2023-02-02T19:00:19.358Z,7.40
2023-02-02T19:02:46.242Z,7.40
2023-02-02T19:05:45.390Z,7.40
2023-02-02T19:08:12.305Z,7.40
2023-02-02T19:10:39.138Z,7.40
2023-02-02T19:13:06.633Z,7.40
2023-02-02T19:15:37.116Z,7.40
2023-02-02T19:18:15.358Z,7.40
2023-02-02T19:20:43.042Z,7.40
2023-02-02T19:23:19.073Z,7.40
2023-02-02T19:25:51.273Z,7.40
2023-02-02T19:28:28.173Z,7.50
2023-02-02T19:31:03.102Z,7.50
2023-02-02T19:33:41.931Z,7.50
2023-02-02T19:36:18.942Z,7.50
2023-02-02T19:38:51.803Z,7.50
2023-02-02T19:41:20.206Z,7.50
2023-02-02T19:43:48.494Z,7.50
2023-02-02T19:46:22.770Z,7.60
2023-02-02T19:48:53.909Z,7.50
2023-02-02T19:51:48.703Z,7.60
2023-02-02T19:54:24.439Z,7.60
2023-02-02T19:56:58.174Z,7.60
2023-02-02T19:59:29.801Z,7.60
2023-02-02T20:01:59.259Z,7.60
2023-02-02T20:04:27.596Z,7.60
2023-02-02T20:06:59.526Z,7.60
2023-02-02T20:09:33.584Z,7.60
2023-02-02T20:12:21.275Z,7.70
2023-02-02T20:14:48.737Z,7.60
2023-02-02T20:17:32.856Z,7.60
2023-02-02T20:20:00.544Z,7.60
2023-02-02T20:22:29.094Z,7.70
2023-02-02T20:24:57.375Z,7.70
2023-02-02T20:27:27.423Z,7.70
2023-02-02T20:29:57.984Z,7.70
2023-02-02T20:32:31.469Z,7.70
2023-02-02T20:34:59.727Z,7.70
2023-02-02T20:37:29.183Z,7.80
2023-02-02T20:40:32.432Z,7.80
2023-02-02T20:43:01.594Z,7.80
2023-02-02T20:45:28.421Z,7.80
2023-02-02T20:47:55.272Z,7.80
2023-02-02T20:50:23.017Z,7.80
2023-02-02T20:52:51.821Z,7.80
2023-02-02T20:55:18.983Z,7.80
2023-02-02T20:57:46.051Z,7.80
2023-02-02T21:00:16.028Z,7.90
2023-02-02T21:02:43.054Z,7.90
2023-02-02T21:05:10.117Z,7.90
2023-02-02T21:07:37.130Z,7.90
2023-02-02T21:10:05.234Z,7.90
2023-02-02T21:12:32.172Z,7.90
2023-02-02T21:14:59.107Z,7.90
2023-02-02T21:17:27.508Z,7.90
2023-02-02T21:19:54.650Z,7.90
2023-02-02T21:22:21.684Z,7.90
2023-02-02T21:24:48.645Z,7.90
2023-02-02T21:27:15.605Z,7.90
2023-02-02T21:29:42.532Z,7.90
2023-02-02T21:32:09.550Z,7.90
2023-02-02T21:34:37.851Z,7.90
2023-02-02T21:37:14.968Z,7.90
2023-02-02T21:39:48.264Z,8.00
2023-02-02T21:42:16.700Z,8.00
2023-02-02T21:45:25.355Z,8.10
2023-02-02T21:47:58.533Z,8.00
2023-02-02T21:50:28.772Z,8.00
2023-02-02T21:53:17.178Z,8.00
2023-02-02T21:55:45.492Z,8.00
2023-02-02T21:58:22.859Z,8.00
2023-02-02T22:00:50.576Z,8.00
2023-02-02T22:03:38.012Z,8.10
2023-02-02T22:06:04.777Z,8.10
2023-02-02T22:08:36.787Z,8.10
2023-02-02T22:11:03.808Z,8.10
2023-02-02T22:13:35.278Z,8.10
2023-02-02T22:16:02.329Z,8.10
2023-02-02T22:18:29.679Z,8.10
2023-02-02T22:20:56.889Z,8.10
2023-02-02T22:23:29.919Z,8.10
2023-02-02T22:25:58.568Z,8.20
2023-02-02T22:28:46.571Z,8.10
2023-02-02T22:31:13.550Z,8.20
2023-02-02T22:33:40.430Z,8.20
2023-02-02T22:36:07.800Z,8.20
2023-02-02T22:38:34.618Z,8.10
2023-02-02T22:41:01.629Z,8.10
2023-02-02T22:43:28.476Z,8.10
2023-02-02T22:45:55.352Z,8.10
2023-02-02T22:48:22.374Z,8.10
2023-02-02T22:50:49.178Z,8.10
2023-02-02T22:53:16.069Z,8.10
2023-02-02T22:55:43.487Z,8.10
2023-02-02T22:58:10.380Z,8.10
2023-02-02T23:00:37.729Z,8.10
2023-02-02T23:03:04.680Z,8.20
2023-02-02T23:05:31.606Z,8.20
2023-02-02T23:08:01.015Z,8.10
2023-02-02T23:10:29.850Z,8.20
2023-02-02T23:12:58.707Z,8.20
2023-02-02T23:15:26.289Z,8.20
2023-02-02T23:17:53.601Z,8.20
2023-02-02T23:20:20.692Z,8.20
2023-02-02T23:22:47.495Z,8.20
2023-02-02T23:25:15.001Z,8.30
2023-02-02T23:27:42.398Z,8.30
2023-02-02T23:30:10.332Z,8.30
2023-02-02T23:32:37.211Z,8.20
2023-02-02T23:35:05.147Z,8.30
2023-02-02T23:37:32.063Z,8.20
2023-02-02T23:39:58.919Z,8.20
2023-02-02T23:42:25.962Z,8.20
2023-02-02T23:44:53.006Z,8.20
2023-02-02T23:47:19.963Z,8.20
2023-02-02T23:49:47.063Z,8.20
2023-02-02T23:52:14.754Z,8.20
2023-02-02T23:54:41.873Z,8.20
2023-02-02T23:57:08.912Z,8.20
2023-02-02T23:59:35.778Z,8.20
